sensor_id;sensor_type;location;lat;lon;timestamp;temperature;humidity
25248;DHT22;13191;47.472;11.214;2023-02-01T00:01:09;1.20;99.90
25248;DHT22;13191;47.472;11.214;2023-02-01T00:03:34;1.20;99.90
25248;DHT22;13191;47.472;11.214;2023-02-01T00:06:00;1.20;99.90
25248;DHT22;13191;47.472;11.214;2023-02-01T00:08:26;1.10;99.90
25248;DHT22;13191;47.472;11.214;2023-02-01T00:11:02;1.10;99.90
25248;DHT22;13191;47.472;11.214;2023-02-01T00:13:29;1.10;99.90
25248;DHT22;13191;47.472;11.214;2023-02-01T00:16:01;1.10;99.90
25248;DHT22;13191;47.472;11.214;2023-02-01T00:18:27;1.10;99.90
25248;DHT22;13191;47.472;11.214;2023-02-01T00:20:52;1.10;99.90
25248;DHT22;13191;47.472;11.214;2023-02-01T00:23:18;1.10;99.90
25248;DHT22;13191;47.472;11.214;2023-02-01T00:25:43;1.20;99.90
25248;DHT22;13191;47.472;11.214;2023-02-01T00:28:09;1.00;99.90
25248;DHT22;13191;47.472;11.214;2023-02-01T00:30:34;1.00;99.90
25248;DHT22;13191;47.472;11.214;2023-02-01T00:33:00;1.00;99.90
25248;DHT22;13191;47.472;11.214;2023-02-01T00:35:25;0.90;99.90
25248;DHT22;13191;47.472;11.214;2023-02-01T00:37:51;0.90;99.90
25248;DHT22;13191;47.472;11.214;2023-02-01T00:40:16;0.90;99.90
25248;DHT22;13191;47.472;11.214;2023-02-01T00:42:42;0.80;99.90
25248;DHT22;13191;47.472;11.214;2023-02-01T00:45:07;0.90;99.90
25248;DHT22;13191;47.472;11.214;2023-02-01T00:47:33;0.80;99.90
25248;DHT22;13191;47.472;11.214;2023-02-01T00:49:58;0.70;99.90
25248;DHT22;13191;47.472;11.214;2023-02-01T00:52:24;0.50;99.90
25248;DHT22;13191;47.472;11.214;2023-02-01T00:54:49;0.40;99.90
25248;DHT22;13191;47.472;11.214;2023-02-01T00:57:15;0.30;99.90
25248;DHT22;13191;47.472;11.214;2023-02-01T00:59:40;0.30;99.90
25248;DHT22;13191;47.472;11.214;2023-02-01T01:02:06;0.30;99.90
25248;DHT22;13191;47.472;11.214;2023-02-01T01:04:31;0.30;99.90
25248;DHT22;13191;47.472;11.214;2023-02-01T01:06:57;0.20;99.90
25248;DHT22;13191;47.472;11.214;2023-02-01T01:09:22;0.20;99.90
25248;DHT22;13191;47.472;11.214;2023-02-01T01:11:48;0.00;99.90
25248;DHT22;13191;47.472;11.214;2023-02-01T01:14:13;-0.10;99.90
25248;DHT22;13191;47.472;11.214;2023-02-01T01:16:39;0.00;99.90
25248;DHT22;13191;47.472;11.214;2023-02-01T01:19:04;-0.20;99.90
25248;DHT22;13191;47.472;11.214;2023-02-01T01:21:30;-0.20;99.90
25248;DHT22;13191;47.472;11.214;2023-02-01T01:23:56;-0.20;99.90
25248;DHT22;13191;47.472;11.214;2023-02-01T01:26:23;-0.30;99.90
25248;DHT22;13191;47.472;11.214;2023-02-01T01:28:49;-0.50;99.90
25248;DHT22;13191;47.472;11.214;2023-02-01T01:31:15;-0.70;99.90
25248;DHT22;13191;47.472;11.214;2023-02-01T01:33:41;-0.70;99.90
25248;DHT22;13191;47.472;11.214;2023-02-01T01:36:07;-0.70;99.90
25248;DHT22;13191;47.472;11.214;2023-02-01T01:38:32;-0.70;99.90
25248;DHT22;13191;47.472;11.214;2023-02-01T01:40:58;-0.70;99.90
25248;DHT22;13191;47.472;11.214;2023-02-01T01:43:44;-0.70;99.90
25248;DHT22;13191;47.472;11.214;2023-02-01T01:46:11;-0.60;99.90
25248;DHT22;13191;47.472;11.214;2023-02-01T01:48:40;-0.60;99.90
25248;DHT22;13191;47.472;11.214;2023-02-01T01:51:07;-0.60;99.90
25248;DHT22;13191;47.472;11.214;2023-02-01T01:53:36;-0.70;99.90
25248;DHT22;13191;47.472;11.214;2023-02-01T01:56:03;-0.80;99.90
25248;DHT22;13191;47.472;11.214;2023-02-01T01:58:28;-0.80;99.90
25248;DHT22;13191;47.472;11.214;2023-02-01T02:00:55;-0.90;99.90
25248;DHT22;13191;47.472;11.214;2023-02-01T02:03:25;-0.90;99.90
25248;DHT22;13191;47.472;11.214;2023-02-01T02:05:53;-0.80;99.90
25248;DHT22;13191;47.472;11.214;2023-02-01T02:08:20;-0.90;99.90
25248;DHT22;13191;47.472;11.214;2023-02-01T02:10:50;-0.90;99.90
25248;DHT22;13191;47.472;11.214;2023-02-01T02:13:25;-1.00;99.90
25248;DHT22;13191;47.472;11.214;2023-02-01T02:24:02;-1.00;99.90
25248;DHT22;13191;47.472;11.214;2023-02-01T02:26:52;-1.20;99.90
25248;DHT22;13191;47.472;11.214;2023-02-01T02:29:33;-1.20;99.90
25248;DHT22;13191;47.472;11.214;2023-02-01T02:34:47;-1.20;99.90
25248;DHT22;13191;47.472;11.214;2023-02-01T02:37:19;-1.30;99.90
25248;DHT22;13191;47.472;11.214;2023-02-01T03:03:38;-1.10;99.90
25248;DHT22;13191;47.472;11.214;2023-02-01T03:06:22;-1.10;99.90
25248;DHT22;13191;47.472;11.214;2023-02-01T03:08:48;-1.20;99.90
25248;DHT22;13191;47.472;11.214;2023-02-01T03:11:14;-1.30;99.90
25248;DHT22;13191;47.472;11.214;2023-02-01T03:13:53;-1.30;99.90
25248;DHT22;13191;47.472;11.214;2023-02-01T03:40:46;-1.50;99.90
25248;DHT22;13191;47.472;11.214;2023-02-01T03:43:14;-1.60;99.90
25248;DHT22;13191;47.472;11.214;2023-02-01T03:45:43;-1.60;99.90
25248;DHT22;13191;47.472;11.214;2023-02-01T04:12:28;-2.20;99.90
25248;DHT22;13191;47.472;11.214;2023-02-01T04:14:54;-2.20;99.90
25248;DHT22;13191;47.472;11.214;2023-02-01T04:17:19;-2.20;99.90
25248;DHT22;13191;47.472;11.214;2023-02-01T04:19:45;-2.10;99.90
25248;DHT22;13191;47.472;11.214;2023-02-01T04:22:10;-2.10;99.90
25248;DHT22;13191;47.472;11.214;2023-02-01T04:24:37;-2.10;99.90
25248;DHT22;13191;47.472;11.214;2023-02-01T04:27:03;-2.10;99.90
25248;DHT22;13191;47.472;11.214;2023-02-01T04:29:28;-2.20;99.90
25248;DHT22;13191;47.472;11.214;2023-02-01T04:31:54;-2.40;99.90
25248;DHT22;13191;47.472;11.214;2023-02-01T04:34:19;-2.50;99.90
25248;DHT22;13191;47.472;11.214;2023-02-01T04:36:45;-2.60;99.90
25248;DHT22;13191;47.472;11.214;2023-02-01T04:39:10;-2.70;99.90
25248;DHT22;13191;47.472;11.214;2023-02-01T04:41:36;-2.90;99.90
25248;DHT22;13191;47.472;11.214;2023-02-01T04:44:02;-3.00;99.90
25248;DHT22;13191;47.472;11.214;2023-02-01T05:45:12;-3.20;99.90
25248;DHT22;13191;47.472;11.214;2023-02-01T05:47:37;-3.30;99.90
25248;DHT22;13191;47.472;11.214;2023-02-01T05:50:03;-3.40;99.90
25248;DHT22;13191;47.472;11.214;2023-02-01T05:52:29;-3.50;99.90
25248;DHT22;13191;47.472;11.214;2023-02-01T05:54:54;-3.50;99.90
25248;DHT22;13191;47.472;11.214;2023-02-01T05:57:20;-3.50;99.90
25248;DHT22;13191;47.472;11.214;2023-02-01T05:59:45;-3.40;99.90
25248;DHT22;13191;47.472;11.214;2023-02-01T06:02:11;-3.40;99.90
25248;DHT22;13191;47.472;11.214;2023-02-01T06:04:37;-3.40;99.90
25248;DHT22;13191;47.472;11.214;2023-02-01T06:07:03;-3.30;99.90
25248;DHT22;13191;47.472;11.214;2023-02-01T06:09:28;-3.30;99.90
25248;DHT22;13191;47.472;11.214;2023-02-01T06:11:54;-3.10;99.90
25248;DHT22;13191;47.472;11.214;2023-02-01T06:14:19;-3.10;99.90
25248;DHT22;13191;47.472;11.214;2023-02-01T06:16:45;-3.00;99.90
25248;DHT22;13191;47.472;11.214;2023-02-01T06:19:12;-2.90;99.90
25248;DHT22;13191;47.472;11.214;2023-02-01T06:21:37;-2.80;99.90
25248;DHT22;13191;47.472;11.214;2023-02-01T06:24:03;-2.80;99.90
25248;DHT22;13191;47.472;11.214;2023-02-01T06:26:29;-2.70;99.90
25248;DHT22;13191;47.472;11.214;2023-02-01T06:28:55;-2.50;99.90
25248;DHT22;13191;47.472;11.214;2023-02-01T06:31:21;-2.50;99.90
25248;DHT22;13191;47.472;11.214;2023-02-01T06:33:47;-2.40;99.90
25248;DHT22;13191;47.472;11.214;2023-02-01T06:36:14;-2.30;99.90
25248;DHT22;13191;47.472;11.214;2023-02-01T06:38:41;-2.20;99.90
25248;DHT22;13191;47.472;11.214;2023-02-01T06:41:06;-2.20;99.90
25248;DHT22;13191;47.472;11.214;2023-02-01T06:43:32;-2.20;99.90
25248;DHT22;13191;47.472;11.214;2023-02-01T06:46:01;-2.20;99.90
25248;DHT22;13191;47.472;11.214;2023-02-01T06:48:27;-2.10;99.90
25248;DHT22;13191;47.472;11.214;2023-02-01T06:50:53;-2.10;99.90
25248;DHT22;13191;47.472;11.214;2023-02-01T06:53:18;-2.10;99.90
25248;DHT22;13191;47.472;11.214;2023-02-01T06:55:54;-2.00;99.90
25248;DHT22;13191;47.472;11.214;2023-02-01T06:58:20;-1.90;99.90
25248;DHT22;13191;47.472;11.214;2023-02-01T07:00:45;-1.90;99.90
25248;DHT22;13191;47.472;11.214;2023-02-01T07:03:11;-1.90;99.90
25248;DHT22;13191;47.472;11.214;2023-02-01T07:05:36;-1.80;99.90
25248;DHT22;13191;47.472;11.214;2023-02-01T07:08:02;-1.80;99.90
25248;DHT22;13191;47.472;11.214;2023-02-01T07:10:27;-1.70;99.90
25248;DHT22;13191;47.472;11.214;2023-02-01T07:12:55;-1.60;99.90
25248;DHT22;13191;47.472;11.214;2023-02-01T07:27:33;-1.30;99.90
25248;DHT22;13191;47.472;11.214;2023-02-01T07:29:59;-1.30;99.90
25248;DHT22;13191;47.472;11.214;2023-02-01T07:32:27;-1.20;99.90
25248;DHT22;13191;47.472;11.214;2023-02-01T07:34:53;-1.20;99.90
25248;DHT22;13191;47.472;11.214;2023-02-01T07:37:18;-1.10;99.90
25248;DHT22;13191;47.472;11.214;2023-02-01T07:39:44;-1.10;99.90
25248;DHT22;13191;47.472;11.214;2023-02-01T07:42:09;-1.00;99.90
25248;DHT22;13191;47.472;11.214;2023-02-01T07:44:35;-1.00;99.90
25248;DHT22;13191;47.472;11.214;2023-02-01T07:47:00;-1.00;99.90
25248;DHT22;13191;47.472;11.214;2023-02-01T07:49:25;-0.90;99.90
25248;DHT22;13191;47.472;11.214;2023-02-01T07:51:51;-0.90;99.90
25248;DHT22;13191;47.472;11.214;2023-02-01T07:54:17;-0.90;99.90
25248;DHT22;13191;47.472;11.214;2023-02-01T07:56:43;-0.80;99.90
25248;DHT22;13191;47.472;11.214;2023-02-01T07:59:08;-0.80;99.90
25248;DHT22;13191;47.472;11.214;2023-02-01T08:01:34;-0.70;99.90
25248;DHT22;13191;47.472;11.214;2023-02-01T08:04:00;-0.60;99.90
25248;DHT22;13191;47.472;11.214;2023-02-01T08:06:27;-0.50;99.90
25248;DHT22;13191;47.472;11.214;2023-02-01T08:08:53;-0.30;99.90
25248;DHT22;13191;47.472;11.214;2023-02-01T08:11:19;-0.30;99.90
25248;DHT22;13191;47.472;11.214;2023-02-01T08:13:45;-0.20;99.90
25248;DHT22;13191;47.472;11.214;2023-02-01T08:16:11;-0.10;99.90
25248;DHT22;13191;47.472;11.214;2023-02-01T08:18:37;0.00;99.90
25248;DHT22;13191;47.472;11.214;2023-02-01T08:30:47;0.80;99.90
25248;DHT22;13191;47.472;11.214;2023-02-01T08:33:13;1.10;99.90
25248;DHT22;13191;47.472;11.214;2023-02-01T08:35:38;1.20;99.90
25248;DHT22;13191;47.472;11.214;2023-02-01T08:38:04;1.40;99.90
25248;DHT22;13191;47.472;11.214;2023-02-01T08:40:29;1.60;99.90
25248;DHT22;13191;47.472;11.214;2023-02-01T08:42:55;1.70;99.90
25248;DHT22;13191;47.472;11.214;2023-02-01T08:45:22;1.90;99.90
25248;DHT22;13191;47.472;11.214;2023-02-01T08:47:49;2.00;99.90
25248;DHT22;13191;47.472;11.214;2023-02-01T08:50:15;2.10;99.90
25248;DHT22;13191;47.472;11.214;2023-02-01T08:52:40;2.10;99.90
25248;DHT22;13191;47.472;11.214;2023-02-01T08:55:06;2.20;99.90
25248;DHT22;13191;47.472;11.214;2023-02-01T08:57:32;2.20;99.90
25248;DHT22;13191;47.472;11.214;2023-02-01T08:59:58;2.30;99.90
25248;DHT22;13191;47.472;11.214;2023-02-01T09:02:24;2.30;99.90
25248;DHT22;13191;47.472;11.214;2023-02-01T09:04:49;2.40;99.90
25248;DHT22;13191;47.472;11.214;2023-02-01T09:07:15;2.40;99.90
25248;DHT22;13191;47.472;11.214;2023-02-01T09:09:42;2.60;99.90
25248;DHT22;13191;47.472;11.214;2023-02-01T09:12:07;2.60;99.90
25248;DHT22;13191;47.472;11.214;2023-02-01T09:14:33;2.60;99.90
25248;DHT22;13191;47.472;11.214;2023-02-01T09:16:58;2.70;99.90
25248;DHT22;13191;47.472;11.214;2023-02-01T09:19:24;2.70;99.90
25248;DHT22;13191;47.472;11.214;2023-02-01T09:21:50;2.70;99.90
25248;DHT22;13191;47.472;11.214;2023-02-01T09:24:15;2.70;99.90
25248;DHT22;13191;47.472;11.214;2023-02-01T09:26:41;2.70;99.90
25248;DHT22;13191;47.472;11.214;2023-02-01T09:29:06;2.70;99.90
25248;DHT22;13191;47.472;11.214;2023-02-01T09:31:38;2.70;99.90
25248;DHT22;13191;47.472;11.214;2023-02-01T09:34:04;2.90;99.90
25248;DHT22;13191;47.472;11.214;2023-02-01T09:36:30;3.00;99.90
25248;DHT22;13191;47.472;11.214;2023-02-01T09:38:56;3.00;99.90
25248;DHT22;13191;47.472;11.214;2023-02-01T09:46:23;3.20;99.90
25248;DHT22;13191;47.472;11.214;2023-02-01T09:48:49;3.10;99.90
25248;DHT22;13191;47.472;11.214;2023-02-01T09:51:29;3.10;99.90
25248;DHT22;13191;47.472;11.214;2023-02-01T09:56:25;3.20;99.90
25248;DHT22;13191;47.472;11.214;2023-02-01T09:59:14;3.20;99.90
25248;DHT22;13191;47.472;11.214;2023-02-01T10:01:40;3.30;99.90
25248;DHT22;13191;47.472;11.214;2023-02-01T10:04:08;3.30;99.90
25248;DHT22;13191;47.472;11.214;2023-02-01T10:06:37;3.40;99.90
25248;DHT22;13191;47.472;11.214;2023-02-01T10:19:33;3.60;99.90
25248;DHT22;13191;47.472;11.214;2023-02-01T10:22:05;3.60;99.90
25248;DHT22;13191;47.472;11.214;2023-02-01T10:24:37;3.70;99.90
25248;DHT22;13191;47.472;11.214;2023-02-01T10:27:14;3.60;99.90
25248;DHT22;13191;47.472;11.214;2023-02-01T10:29:43;3.70;99.90
25248;DHT22;13191;47.472;11.214;2023-02-01T10:32:15;3.70;99.90
25248;DHT22;13191;47.472;11.214;2023-02-01T10:34:41;3.80;99.90
25248;DHT22;13191;47.472;11.214;2023-02-01T10:37:11;4.00;99.90
25248;DHT22;13191;47.472;11.214;2023-02-01T10:39:44;4.00;99.90
25248;DHT22;13191;47.472;11.214;2023-02-01T10:42:10;4.00;99.90
25248;DHT22;13191;47.472;11.214;2023-02-01T10:44:35;4.10;99.90
25248;DHT22;13191;47.472;11.214;2023-02-01T10:47:02;4.00;99.90
25248;DHT22;13191;47.472;11.214;2023-02-01T10:49:38;4.00;99.90
25248;DHT22;13191;47.472;11.214;2023-02-01T10:54:33;3.90;99.90
25248;DHT22;13191;47.472;11.214;2023-02-01T10:56:59;3.90;99.90
25248;DHT22;13191;47.472;11.214;2023-02-01T10:59:25;3.90;99.90
25248;DHT22;13191;47.472;11.214;2023-02-01T11:01:58;3.90;99.90
25248;DHT22;13191;47.472;11.214;2023-02-01T11:04:24;3.90;99.90
25248;DHT22;13191;47.472;11.214;2023-02-01T11:07:33;3.90;99.90
25248;DHT22;13191;47.472;11.214;2023-02-01T11:09:40;3.90;99.90
25248;DHT22;13191;47.472;11.214;2023-02-01T11:12:10;3.90;99.90
25248;DHT22;13191;47.472;11.214;2023-02-01T11:14:45;3.90;99.90
25248;DHT22;13191;47.472;11.214;2023-02-01T11:19:46;4.00;99.90
25248;DHT22;13191;47.472;11.214;2023-02-01T11:22:13;4.00;99.90
25248;DHT22;13191;47.472;11.214;2023-02-01T11:24:39;4.10;99.90
25248;DHT22;13191;47.472;11.214;2023-02-01T11:27:11;4.20;99.90
25248;DHT22;13191;47.472;11.214;2023-02-01T11:29:38;4.20;99.90
25248;DHT22;13191;47.472;11.214;2023-02-01T11:32:05;4.10;99.90
25248;DHT22;13191;47.472;11.214;2023-02-01T11:34:37;4.20;99.90
25248;DHT22;13191;47.472;11.214;2023-02-01T11:37:03;4.20;99.90
25248;DHT22;13191;47.472;11.214;2023-02-01T11:39:33;4.30;99.90
25248;DHT22;13191;47.472;11.214;2023-02-01T11:42:11;4.30;99.90
25248;DHT22;13191;47.472;11.214;2023-02-01T11:44:42;4.30;99.90
25248;DHT22;13191;47.472;11.214;2023-02-01T11:47:27;4.30;99.90
25248;DHT22;13191;47.472;11.214;2023-02-01T11:49:57;4.30;99.90
25248;DHT22;13191;47.472;11.214;2023-02-01T11:57:42;4.30;99.90
25248;DHT22;13191;47.472;11.214;2023-02-01T12:10:26;4.30;99.90
25248;DHT22;13191;47.472;11.214;2023-02-01T12:13:00;4.40;99.90
25248;DHT22;13191;47.472;11.214;2023-02-01T12:15:41;4.30;99.90
25248;DHT22;13191;47.472;11.214;2023-02-01T12:18:37;4.40;99.90
25248;DHT22;13191;47.472;11.214;2023-02-01T12:21:06;4.40;99.90
25248;DHT22;13191;47.472;11.214;2023-02-01T12:23:36;4.40;99.90
25248;DHT22;13191;47.472;11.214;2023-02-01T12:31:18;4.40;99.90
25248;DHT22;13191;47.472;11.214;2023-02-01T12:39:29;4.50;99.90
25248;DHT22;13191;47.472;11.214;2023-02-01T12:44:27;4.50;99.90
25248;DHT22;13191;47.472;11.214;2023-02-01T12:49:33;4.40;99.90
25248;DHT22;13191;47.472;11.214;2023-02-01T12:52:02;4.40;99.90
25248;DHT22;13191;47.472;11.214;2023-02-01T12:54:44;4.40;99.90
25248;DHT22;13191;47.472;11.214;2023-02-01T13:02:39;4.40;99.90
25248;DHT22;13191;47.472;11.214;2023-02-01T13:05:17;4.40;99.90
25248;DHT22;13191;47.472;11.214;2023-02-01T13:10:15;4.40;99.90
25248;DHT22;13191;47.472;11.214;2023-02-01T13:12:49;4.40;99.90
25248;DHT22;13191;47.472;11.214;2023-02-01T13:17:41;4.40;99.90
25248;DHT22;13191;47.472;11.214;2023-02-01T13:22:43;4.30;99.90
25248;DHT22;13191;47.472;11.214;2023-02-01T13:25:17;4.40;99.90
25248;DHT22;13191;47.472;11.214;2023-02-01T13:27:43;4.30;99.90
25248;DHT22;13191;47.472;11.214;2023-02-01T13:30:23;4.30;99.90
25248;DHT22;13191;47.472;11.214;2023-02-01T13:32:56;4.40;99.90
25248;DHT22;13191;47.472;11.214;2023-02-01T13:35:35;4.30;99.90
25248;DHT22;13191;47.472;11.214;2023-02-01T13:38:24;4.40;99.90
25248;DHT22;13191;47.472;11.214;2023-02-01T13:41:00;4.30;99.90
25248;DHT22;13191;47.472;11.214;2023-02-01T13:43:28;4.30;99.90
25248;DHT22;13191;47.472;11.214;2023-02-01T13:45:55;4.30;99.90
25248;DHT22;13191;47.472;11.214;2023-02-01T13:48:27;4.20;99.90
25248;DHT22;13191;47.472;11.214;2023-02-01T13:50:55;4.20;99.90
25248;DHT22;13191;47.472;11.214;2023-02-01T13:53:26;4.20;99.90
25248;DHT22;13191;47.472;11.214;2023-02-01T13:56:03;4.20;99.90
25248;DHT22;13191;47.472;11.214;2023-02-01T14:03:45;4.20;99.90
25248;DHT22;13191;47.472;11.214;2023-02-01T14:08:44;4.10;99.90
25248;DHT22;13191;47.472;11.214;2023-02-01T14:13:54;4.20;99.90
25248;DHT22;13191;47.472;11.214;2023-02-01T14:16:19;4.20;99.90
25248;DHT22;13191;47.472;11.214;2023-02-01T14:23:40;4.20;99.90
25248;DHT22;13191;47.472;11.214;2023-02-01T14:26:11;4.20;99.90
25248;DHT22;13191;47.472;11.214;2023-02-01T14:28:39;4.20;99.90
25248;DHT22;13191;47.472;11.214;2023-02-01T14:31:24;4.20;99.90
25248;DHT22;13191;47.472;11.214;2023-02-01T14:33:54;4.20;99.90
25248;DHT22;13191;47.472;11.214;2023-02-01T14:36:20;4.20;99.90
25248;DHT22;13191;47.472;11.214;2023-02-01T14:38:49;4.20;99.90
25248;DHT22;13191;47.472;11.214;2023-02-01T14:41:24;4.20;99.90
25248;DHT22;13191;47.472;11.214;2023-02-01T14:43:51;4.20;99.90
25248;DHT22;13191;47.472;11.214;2023-02-01T14:49:21;4.20;99.90
25248;DHT22;13191;47.472;11.214;2023-02-01T14:51:46;4.20;99.90
25248;DHT22;13191;47.472;11.214;2023-02-01T14:54:12;4.20;99.90
25248;DHT22;13191;47.472;11.214;2023-02-01T14:56:39;4.20;99.90
25248;DHT22;13191;47.472;11.214;2023-02-01T14:59:08;4.10;99.90
25248;DHT22;13191;47.472;11.214;2023-02-01T15:01:38;4.00;99.90
25248;DHT22;13191;47.472;11.214;2023-02-01T15:04:12;3.90;99.90
25248;DHT22;13191;47.472;11.214;2023-02-01T15:06:41;3.90;99.90
25248;DHT22;13191;47.472;11.214;2023-02-01T15:09:17;3.80;99.90
25248;DHT22;13191;47.472;11.214;2023-02-01T15:11:57;3.80;99.90
25248;DHT22;13191;47.472;11.214;2023-02-01T15:14:23;3.70;99.90
25248;DHT22;13191;47.472;11.214;2023-02-01T15:16:48;3.60;99.90
25248;DHT22;13191;47.472;11.214;2023-02-01T15:19:19;3.60;99.90
25248;DHT22;13191;47.472;11.214;2023-02-01T15:21:48;3.60;99.90
25248;DHT22;13191;47.472;11.214;2023-02-01T15:24:30;3.60;99.90
25248;DHT22;13191;47.472;11.214;2023-02-01T15:26:56;3.50;99.90
25248;DHT22;13191;47.472;11.214;2023-02-01T15:29:26;3.40;99.90
25248;DHT22;13191;47.472;11.214;2023-02-01T15:31:57;3.40;99.90
25248;DHT22;13191;47.472;11.214;2023-02-01T15:34:43;3.40;99.90
25248;DHT22;13191;47.472;11.214;2023-02-01T15:37:12;3.30;99.90
25248;DHT22;13191;47.472;11.214;2023-02-01T15:39:37;3.20;99.90
25248;DHT22;13191;47.472;11.214;2023-02-01T15:42:23;3.20;99.90
25248;DHT22;13191;47.472;11.214;2023-02-01T15:44:48;3.20;99.90
25248;DHT22;13191;47.472;11.214;2023-02-01T15:47:24;3.10;99.90
25248;DHT22;13191;47.472;11.214;2023-02-01T15:49:51;3.00;99.90
25248;DHT22;13191;47.472;11.214;2023-02-01T15:55:00;2.90;99.90
25248;DHT22;13191;47.472;11.214;2023-02-01T15:57:27;2.90;99.90
25248;DHT22;13191;47.472;11.214;2023-02-01T15:59:57;2.80;99.90
25248;DHT22;13191;47.472;11.214;2023-02-01T16:02:43;2.80;99.90
25248;DHT22;13191;47.472;11.214;2023-02-01T16:08:02;2.70;99.90
25248;DHT22;13191;47.472;11.214;2023-02-01T16:10:30;2.70;99.90
25248;DHT22;13191;47.472;11.214;2023-02-01T16:12:56;2.60;99.90
25248;DHT22;13191;47.472;11.214;2023-02-01T16:15:26;2.60;99.90
25248;DHT22;13191;47.472;11.214;2023-02-01T16:17:51;2.50;99.90
25248;DHT22;13191;47.472;11.214;2023-02-01T16:20:17;2.50;99.90
25248;DHT22;13191;47.472;11.214;2023-02-01T16:22:42;2.50;99.90
25248;DHT22;13191;47.472;11.214;2023-02-01T16:25:08;2.50;99.90
25248;DHT22;13191;47.472;11.214;2023-02-01T16:27:33;2.50;99.90
25248;DHT22;13191;47.472;11.214;2023-02-01T16:29:59;2.50;99.90
25248;DHT22;13191;47.472;11.214;2023-02-01T16:32:24;2.50;99.90
25248;DHT22;13191;47.472;11.214;2023-02-01T16:34:51;2.50;99.90
25248;DHT22;13191;47.472;11.214;2023-02-01T16:37:23;2.50;99.90
25248;DHT22;13191;47.472;11.214;2023-02-01T16:39:49;2.50;99.90
25248;DHT22;13191;47.472;11.214;2023-02-01T16:42:15;2.50;99.90
25248;DHT22;13191;47.472;11.214;2023-02-01T16:44:41;2.50;99.90
25248;DHT22;13191;47.472;11.214;2023-02-01T16:47:19;2.50;99.90
25248;DHT22;13191;47.472;11.214;2023-02-01T16:49:45;2.50;99.90
25248;DHT22;13191;47.472;11.214;2023-02-01T16:52:13;2.50;99.90
25248;DHT22;13191;47.472;11.214;2023-02-01T16:54:39;2.50;99.90
25248;DHT22;13191;47.472;11.214;2023-02-01T16:57:04;2.60;99.90
25248;DHT22;13191;47.472;11.214;2023-02-01T16:59:30;2.60;99.90
25248;DHT22;13191;47.472;11.214;2023-02-01T17:01:55;2.60;99.90
25248;DHT22;13191;47.472;11.214;2023-02-01T17:04:20;2.60;99.90
25248;DHT22;13191;47.472;11.214;2023-02-01T17:06:46;2.60;99.90
25248;DHT22;13191;47.472;11.214;2023-02-01T17:09:14;2.60;99.90
25248;DHT22;13191;47.472;11.214;2023-02-01T17:11:39;2.60;99.90
25248;DHT22;13191;47.472;11.214;2023-02-01T17:14:23;2.50;99.90
25248;DHT22;13191;47.472;11.214;2023-02-01T17:16:49;2.50;99.90
25248;DHT22;13191;47.472;11.214;2023-02-01T17:19:16;2.50;99.90
25248;DHT22;13191;47.472;11.214;2023-02-01T17:21:46;2.50;99.90
25248;DHT22;13191;47.472;11.214;2023-02-01T17:24:14;2.40;99.90
25248;DHT22;13191;47.472;11.214;2023-02-01T17:26:40;2.40;99.90
25248;DHT22;13191;47.472;11.214;2023-02-01T17:29:06;2.40;99.90
25248;DHT22;13191;47.472;11.214;2023-02-01T17:31:32;2.40;99.90
25248;DHT22;13191;47.472;11.214;2023-02-01T17:33:58;2.30;99.90
25248;DHT22;13191;47.472;11.214;2023-02-01T17:36:23;2.30;99.90
25248;DHT22;13191;47.472;11.214;2023-02-01T17:38:50;2.20;99.90
25248;DHT22;13191;47.472;11.214;2023-02-01T17:41:15;2.10;99.90
25248;DHT22;13191;47.472;11.214;2023-02-01T17:43:41;2.20;99.90
25248;DHT22;13191;47.472;11.214;2023-02-01T17:46:10;2.10;99.90
25248;DHT22;13191;47.472;11.214;2023-02-01T17:48:36;2.10;99.90
25248;DHT22;13191;47.472;11.214;2023-02-01T17:51:02;2.00;99.90
25248;DHT22;13191;47.472;11.214;2023-02-01T17:53:28;2.00;99.90
25248;DHT22;13191;47.472;11.214;2023-02-01T17:55:54;2.00;99.90
25248;DHT22;13191;47.472;11.214;2023-02-01T17:58:22;1.90;99.90
25248;DHT22;13191;47.472;11.214;2023-02-01T18:00:48;1.90;99.90
25248;DHT22;13191;47.472;11.214;2023-02-01T18:03:27;1.90;99.90
25248;DHT22;13191;47.472;11.214;2023-02-01T18:05:54;2.00;99.90
25248;DHT22;13191;47.472;11.214;2023-02-01T18:08:21;2.00;99.90
25248;DHT22;13191;47.472;11.214;2023-02-01T18:10:47;2.00;99.90
25248;DHT22;13191;47.472;11.214;2023-02-01T18:13:13;2.00;99.90
25248;DHT22;13191;47.472;11.214;2023-02-01T18:15:39;2.00;99.90
25248;DHT22;13191;47.472;11.214;2023-02-01T18:18:04;2.00;99.90
25248;DHT22;13191;47.472;11.214;2023-02-01T18:20:30;2.00;99.90
25248;DHT22;13191;47.472;11.214;2023-02-01T18:22:55;2.00;99.90
25248;DHT22;13191;47.472;11.214;2023-02-01T18:25:22;2.00;99.90
25248;DHT22;13191;47.472;11.214;2023-02-01T18:27:48;2.00;99.90
25248;DHT22;13191;47.472;11.214;2023-02-01T18:30:14;2.00;99.90
25248;DHT22;13191;47.472;11.214;2023-02-01T18:32:40;2.00;99.90
25248;DHT22;13191;47.472;11.214;2023-02-01T18:37:37;2.10;99.90
25248;DHT22;13191;47.472;11.214;2023-02-01T18:40:03;2.10;99.90
25248;DHT22;13191;47.472;11.214;2023-02-01T18:42:28;2.10;99.90
25248;DHT22;13191;47.472;11.214;2023-02-01T18:44:54;2.00;99.90
25248;DHT22;13191;47.472;11.214;2023-02-01T18:47:19;2.00;99.90
25248;DHT22;13191;47.472;11.214;2023-02-01T18:49:45;2.00;99.90
25248;DHT22;13191;47.472;11.214;2023-02-01T18:52:10;2.00;99.90
25248;DHT22;13191;47.472;11.214;2023-02-01T18:54:36;2.00;99.90
25248;DHT22;13191;47.472;11.214;2023-02-01T18:57:02;2.00;99.90
25248;DHT22;13191;47.472;11.214;2023-02-01T18:59:27;1.90;99.90
25248;DHT22;13191;47.472;11.214;2023-02-01T19:01:53;1.90;99.90
25248;DHT22;13191;47.472;11.214;2023-02-01T19:04:18;1.90;99.90
25248;DHT22;13191;47.472;11.214;2023-02-01T19:06:43;1.90;99.90
25248;DHT22;13191;47.472;11.214;2023-02-01T19:09:09;1.90;99.90
25248;DHT22;13191;47.472;11.214;2023-02-01T19:11:34;1.90;99.90
25248;DHT22;13191;47.472;11.214;2023-02-01T19:14:00;1.90;99.90
25248;DHT22;13191;47.472;11.214;2023-02-01T19:16:28;1.90;99.90
25248;DHT22;13191;47.472;11.214;2023-02-01T19:18:54;1.90;99.90
25248;DHT22;13191;47.472;11.214;2023-02-01T19:21:19;1.90;99.90
25248;DHT22;13191;47.472;11.214;2023-02-01T19:23:45;1.80;99.90
25248;DHT22;13191;47.472;11.214;2023-02-01T19:26:11;1.80;99.90
25248;DHT22;13191;47.472;11.214;2023-02-01T19:28:36;1.90;99.90
25248;DHT22;13191;47.472;11.214;2023-02-01T19:31:02;1.90;99.90
25248;DHT22;13191;47.472;11.214;2023-02-01T19:33:29;1.80;99.90
25248;DHT22;13191;47.472;11.214;2023-02-01T19:35:58;1.80;99.90
25248;DHT22;13191;47.472;11.214;2023-02-01T19:38:24;1.80;99.90
25248;DHT22;13191;47.472;11.214;2023-02-01T19:40:49;1.70;99.90
25248;DHT22;13191;47.472;11.214;2023-02-01T19:43:15;1.70;99.90
25248;DHT22;13191;47.472;11.214;2023-02-01T19:45:40;1.70;99.90
25248;DHT22;13191;47.472;11.214;2023-02-01T19:48:07;1.70;99.90
25248;DHT22;13191;47.472;11.214;2023-02-01T19:50:33;1.70;99.90